Terminal Aerodrome Forecast
Issued by NWS Cleveland, OH

Home | Current Version | Previous Version | Graphics & Text | Print | Product List | Glossary On
Versions: 1 2 3 4 5 6 7 8 9 10 11 12 13 14 15 16 17 18 19 20 21
740
FTUS41 KCLE 250534
TAFTOL
TAF
KTOL 250534Z 2506/2606 22010KT P6SM SCT045 OVC120
      TEMPO 2506/2507 OVC045
     FM250700 06011KT P6SM OVC045
     FM251200 06008KT 6SM BR VCSH SCT015 OVC035
      TEMPO 2512/2515 4SM -SHRA BR OVC015
     FM251500 06008KT 5SM BR VCSH OVC012
     FM252200 06008KT 6SM HZ VCSH OVC008=

USA.gov is the U.S. government's official web portal to all federal, state and local government web resources and services.